sensor_id;sensor_type;location;lat;lon;timestamp;P1;durP1;ratioP1;P2;durP2;ratioP2
64885;SDS011;51514;52.206;5.114;2022-10-16T00:00:42;8.60;;;2.80;;
64885;SDS011;51514;52.206;5.114;2022-10-16T00:03:08;6.07;;;2.92;;
64885;SDS011;51514;52.206;5.114;2022-10-16T00:05:41;6.10;;;2.40;;
64885;SDS011;51514;52.206;5.114;2022-10-16T00:08:09;7.20;;;3.35;;
64885;SDS011;51514;52.206;5.114;2022-10-16T00:10:35;7.40;;;2.47;;
64885;SDS011;51514;52.206;5.114;2022-10-16T00:13:01;5.05;;;2.28;;
64885;SDS011;51514;52.206;5.114;2022-10-16T00:15:31;8.35;;;3.60;;
64885;SDS011;51514;52.206;5.114;2022-10-16T00:18:01;5.15;;;2.80;;
64885;SDS011;51514;52.206;5.114;2022-10-16T00:20:26;5.25;;;2.45;;
64885;SDS011;51514;52.206;5.114;2022-10-16T00:22:51;7.50;;;3.13;;
64885;SDS011;51514;52.206;5.114;2022-10-16T00:25:17;5.35;;;2.60;;
64885;SDS011;51514;52.206;5.114;2022-10-16T00:27:42;6.38;;;2.83;;
64885;SDS011;51514;52.206;5.114;2022-10-16T00:30:08;6.30;;;3.22;;
64885;SDS011;51514;52.206;5.114;2022-10-16T00:32:33;5.40;;;2.55;;
64885;SDS011;51514;52.206;5.114;2022-10-16T00:34:58;6.70;;;2.78;;
64885;SDS011;51514;52.206;5.114;2022-10-16T00:37:24;10.63;;;3.95;;
64885;SDS011;51514;52.206;5.114;2022-10-16T00:39:49;6.13;;;3.17;;
64885;SDS011;51514;52.206;5.114;2022-10-16T00:42:16;4.90;;;2.55;;
64885;SDS011;51514;52.206;5.114;2022-10-16T00:44:50;6.22;;;3.00;;
64885;SDS011;51514;52.206;5.114;2022-10-16T00:47:19;4.40;;;2.53;;
64885;SDS011;51514;52.206;5.114;2022-10-16T00:50:02;7.57;;;3.10;;
64885;SDS011;51514;52.206;5.114;2022-10-16T00:52:39;10.25;;;3.47;;
64885;SDS011;51514;52.206;5.114;2022-10-16T00:55:08;6.03;;;2.92;;
64885;SDS011;51514;52.206;5.114;2022-10-16T00:57:34;6.57;;;2.72;;
64885;SDS011;51514;52.206;5.114;2022-10-16T01:00:00;6.68;;;3.13;;
64885;SDS011;51514;52.206;5.114;2022-10-16T01:02:26;5.45;;;2.75;;
64885;SDS011;51514;52.206;5.114;2022-10-16T01:04:52;7.93;;;3.75;;
64885;SDS011;51514;52.206;5.114;2022-10-16T01:12:41;6.10;;;2.50;;
64885;SDS011;51514;52.206;5.114;2022-10-16T01:15:14;6.50;;;2.35;;
64885;SDS011;51514;52.206;5.114;2022-10-16T01:17:51;5.82;;;2.53;;
64885;SDS011;51514;52.206;5.114;2022-10-16T01:20:30;7.70;;;2.53;;
64885;SDS011;51514;52.206;5.114;2022-10-16T01:28:19;8.48;;;2.85;;
64885;SDS011;51514;52.206;5.114;2022-10-16T01:30:48;4.95;;;2.80;;
64885;SDS011;51514;52.206;5.114;2022-10-16T01:33:21;7.80;;;2.95;;
64885;SDS011;51514;52.206;5.114;2022-10-16T01:35:55;6.22;;;2.78;;
64885;SDS011;51514;52.206;5.114;2022-10-16T01:41:01;6.10;;;2.95;;
64885;SDS011;51514;52.206;5.114;2022-10-16T01:43:39;7.25;;;2.90;;
64885;SDS011;51514;52.206;5.114;2022-10-16T01:46:08;4.68;;;2.80;;
64885;SDS011;51514;52.206;5.114;2022-10-16T01:48:35;7.00;;;2.90;;
64885;SDS011;51514;52.206;5.114;2022-10-16T01:51:11;5.20;;;2.72;;
64885;SDS011;51514;52.206;5.114;2022-10-16T01:53:39;5.28;;;2.67;;
64885;SDS011;51514;52.206;5.114;2022-10-16T01:56:08;6.00;;;2.80;;
64885;SDS011;51514;52.206;5.114;2022-10-16T01:58:38;4.90;;;2.92;;
64885;SDS011;51514;52.206;5.114;2022-10-16T02:01:10;6.32;;;3.08;;
64885;SDS011;51514;52.206;5.114;2022-10-16T02:03:38;5.97;;;2.97;;
64885;SDS011;51514;52.206;5.114;2022-10-16T02:06:06;5.63;;;2.53;;
64885;SDS011;51514;52.206;5.114;2022-10-16T02:08:32;4.72;;;2.47;;
64885;SDS011;51514;52.206;5.114;2022-10-16T02:10:58;6.10;;;3.10;;
64885;SDS011;51514;52.206;5.114;2022-10-16T02:16:03;7.30;;;3.30;;
64885;SDS011;51514;52.206;5.114;2022-10-16T02:18:28;5.30;;;2.88;;
64885;SDS011;51514;52.206;5.114;2022-10-16T02:26:30;8.32;;;3.67;;
64885;SDS011;51514;52.206;5.114;2022-10-16T02:29:02;6.13;;;3.50;;
64885;SDS011;51514;52.206;5.114;2022-10-16T02:31:34;7.68;;;3.38;;
64885;SDS011;51514;52.206;5.114;2022-10-16T02:34:03;5.82;;;3.70;;
64885;SDS011;51514;52.206;5.114;2022-10-16T02:36:31;7.25;;;3.92;;
64885;SDS011;51514;52.206;5.114;2022-10-16T02:38:58;8.55;;;3.35;;
64885;SDS011;51514;52.206;5.114;2022-10-16T02:41:28;7.97;;;4.07;;
64885;SDS011;51514;52.206;5.114;2022-10-16T02:43:54;7.55;;;3.83;;
64885;SDS011;51514;52.206;5.114;2022-10-16T02:46:20;5.03;;;3.80;;
64885;SDS011;51514;52.206;5.114;2022-10-16T02:48:46;10.25;;;4.15;;
64885;SDS011;51514;52.206;5.114;2022-10-16T02:51:11;8.82;;;3.85;;
64885;SDS011;51514;52.206;5.114;2022-10-16T02:53:36;6.90;;;3.58;;
64885;SDS011;51514;52.206;5.114;2022-10-16T02:56:01;6.40;;;3.53;;
64885;SDS011;51514;52.206;5.114;2022-10-16T02:58:27;7.18;;;3.50;;
64885;SDS011;51514;52.206;5.114;2022-10-16T03:00:52;5.03;;;3.13;;
64885;SDS011;51514;52.206;5.114;2022-10-16T03:03:17;10.23;;;3.22;;
64885;SDS011;51514;52.206;5.114;2022-10-16T03:05:43;6.82;;;4.72;;
64885;SDS011;51514;52.206;5.114;2022-10-16T03:08:12;6.88;;;3.60;;
64885;SDS011;51514;52.206;5.114;2022-10-16T03:10:40;8.30;;;3.70;;
64885;SDS011;51514;52.206;5.114;2022-10-16T03:13:05;6.07;;;3.22;;
64885;SDS011;51514;52.206;5.114;2022-10-16T03:15:31;11.32;;;3.90;;
64885;SDS011;51514;52.206;5.114;2022-10-16T03:17:59;7.60;;;4.22;;
64885;SDS011;51514;52.206;5.114;2022-10-16T03:20:25;6.35;;;3.60;;
64885;SDS011;51514;52.206;5.114;2022-10-16T03:22:50;7.30;;;3.80;;
64885;SDS011;51514;52.206;5.114;2022-10-16T03:25:16;6.10;;;3.20;;
64885;SDS011;51514;52.206;5.114;2022-10-16T03:27:43;7.80;;;3.10;;
64885;SDS011;51514;52.206;5.114;2022-10-16T03:30:09;6.32;;;3.65;;
64885;SDS011;51514;52.206;5.114;2022-10-16T03:32:35;6.22;;;3.47;;
64885;SDS011;51514;52.206;5.114;2022-10-16T03:35:00;6.72;;;3.85;;
64885;SDS011;51514;52.206;5.114;2022-10-16T03:37:25;6.68;;;3.20;;
64885;SDS011;51514;52.206;5.114;2022-10-16T03:39:51;4.60;;;3.05;;
64885;SDS011;51514;52.206;5.114;2022-10-16T03:42:16;6.07;;;3.50;;
64885;SDS011;51514;52.206;5.114;2022-10-16T03:44:42;6.55;;;3.53;;
64885;SDS011;51514;52.206;5.114;2022-10-16T03:47:07;3.92;;;3.05;;
64885;SDS011;51514;52.206;5.114;2022-10-16T03:49:32;7.45;;;3.10;;
64885;SDS011;51514;52.206;5.114;2022-10-16T03:51:58;9.43;;;3.67;;
64885;SDS011;51514;52.206;5.114;2022-10-16T03:54:23;6.20;;;3.42;;
64885;SDS011;51514;52.206;5.114;2022-10-16T03:56:48;6.45;;;3.22;;
64885;SDS011;51514;52.206;5.114;2022-10-16T03:59:13;6.15;;;3.45;;
64885;SDS011;51514;52.206;5.114;2022-10-16T04:01:40;5.07;;;3.30;;
64885;SDS011;51514;52.206;5.114;2022-10-16T04:04:05;7.20;;;3.33;;
64885;SDS011;51514;52.206;5.114;2022-10-16T04:06:31;4.05;;;3.08;;
64885;SDS011;51514;52.206;5.114;2022-10-16T04:08:56;5.25;;;2.97;;
64885;SDS011;51514;52.206;5.114;2022-10-16T04:11:21;4.93;;;3.10;;
64885;SDS011;51514;52.206;5.114;2022-10-16T04:13:47;6.60;;;3.10;;
64885;SDS011;51514;52.206;5.114;2022-10-16T04:16:13;5.28;;;2.67;;
64885;SDS011;51514;52.206;5.114;2022-10-16T04:18:38;5.72;;;3.40;;
64885;SDS011;51514;52.206;5.114;2022-10-16T04:21:04;6.90;;;2.90;;
64885;SDS011;51514;52.206;5.114;2022-10-16T04:23:31;6.38;;;2.90;;
64885;SDS011;51514;52.206;5.114;2022-10-16T04:25:57;6.28;;;2.72;;
64885;SDS011;51514;52.206;5.114;2022-10-16T04:28:22;6.32;;;3.10;;
64885;SDS011;51514;52.206;5.114;2022-10-16T04:30:48;6.45;;;2.78;;
64885;SDS011;51514;52.206;5.114;2022-10-16T04:33:13;6.28;;;2.92;;
64885;SDS011;51514;52.206;5.114;2022-10-16T04:35:38;4.47;;;2.80;;
64885;SDS011;51514;52.206;5.114;2022-10-16T04:38:04;4.68;;;2.95;;
64885;SDS011;51514;52.206;5.114;2022-10-16T04:40:29;6.13;;;2.95;;
64885;SDS011;51514;52.206;5.114;2022-10-16T04:42:57;4.35;;;2.83;;
64885;SDS011;51514;52.206;5.114;2022-10-16T04:45:23;6.38;;;2.95;;
64885;SDS011;51514;52.206;5.114;2022-10-16T04:47:49;7.82;;;3.00;;
64885;SDS011;51514;52.206;5.114;2022-10-16T04:50:14;4.10;;;2.85;;
64885;SDS011;51514;52.206;5.114;2022-10-16T04:52:39;6.40;;;2.92;;
64885;SDS011;51514;52.206;5.114;2022-10-16T04:55:05;5.72;;;2.95;;
64885;SDS011;51514;52.206;5.114;2022-10-16T04:57:33;5.72;;;2.78;;
64885;SDS011;51514;52.206;5.114;2022-10-16T04:59:59;4.90;;;2.97;;
64885;SDS011;51514;52.206;5.114;2022-10-16T05:02:25;7.05;;;3.00;;
64885;SDS011;51514;52.206;5.114;2022-10-16T05:04:50;4.38;;;3.17;;
64885;SDS011;51514;52.206;5.114;2022-10-16T05:07:16;8.23;;;3.30;;
64885;SDS011;51514;52.206;5.114;2022-10-16T05:09:43;5.78;;;3.28;;
64885;SDS011;51514;52.206;5.114;2022-10-16T05:12:09;7.30;;;3.10;;
64885;SDS011;51514;52.206;5.114;2022-10-16T05:14:34;7.90;;;3.25;;
64885;SDS011;51514;52.206;5.114;2022-10-16T05:17:00;6.32;;;4.10;;
64885;SDS011;51514;52.206;5.114;2022-10-16T05:19:25;8.55;;;3.47;;
64885;SDS011;51514;52.206;5.114;2022-10-16T05:21:50;6.68;;;3.20;;
64885;SDS011;51514;52.206;5.114;2022-10-16T05:24:16;6.47;;;3.20;;
64885;SDS011;51514;52.206;5.114;2022-10-16T05:26:41;5.85;;;2.90;;
64885;SDS011;51514;52.206;5.114;2022-10-16T05:29:07;5.40;;;3.22;;
64885;SDS011;51514;52.206;5.114;2022-10-16T05:31:32;5.78;;;3.20;;
64885;SDS011;51514;52.206;5.114;2022-10-16T05:34:00;5.30;;;3.00;;
64885;SDS011;51514;52.206;5.114;2022-10-16T05:36:27;8.10;;;3.10;;
64885;SDS011;51514;52.206;5.114;2022-10-16T05:38:52;5.07;;;2.92;;
64885;SDS011;51514;52.206;5.114;2022-10-16T05:41:18;7.90;;;3.72;;
64885;SDS011;51514;52.206;5.114;2022-10-16T05:43:46;6.15;;;3.17;;
64885;SDS011;51514;52.206;5.114;2022-10-16T05:46:12;4.65;;;3.15;;
64885;SDS011;51514;52.206;5.114;2022-10-16T05:48:38;9.30;;;3.42;;
64885;SDS011;51514;52.206;5.114;2022-10-16T05:51:04;6.75;;;3.50;;
64885;SDS011;51514;52.206;5.114;2022-10-16T05:53:32;5.43;;;3.75;;
64885;SDS011;51514;52.206;5.114;2022-10-16T05:55:59;8.55;;;3.47;;
64885;SDS011;51514;52.206;5.114;2022-10-16T05:58:29;6.55;;;3.15;;
64885;SDS011;51514;52.206;5.114;2022-10-16T06:00:58;8.40;;;3.85;;
64885;SDS011;51514;52.206;5.114;2022-10-16T06:03:26;7.35;;;4.05;;
64885;SDS011;51514;52.206;5.114;2022-10-16T06:05:51;10.98;;;3.75;;
64885;SDS011;51514;52.206;5.114;2022-10-16T06:08:18;6.68;;;3.78;;
64885;SDS011;51514;52.206;5.114;2022-10-16T06:10:44;5.30;;;3.25;;
64885;SDS011;51514;52.206;5.114;2022-10-16T06:13:11;6.45;;;3.95;;
64885;SDS011;51514;52.206;5.114;2022-10-16T06:15:38;10.52;;;4.47;;
64885;SDS011;51514;52.206;5.114;2022-10-16T06:18:04;8.32;;;4.38;;
64885;SDS011;51514;52.206;5.114;2022-10-16T06:20:30;5.18;;;4.05;;
64885;SDS011;51514;52.206;5.114;2022-10-16T06:22:55;7.07;;;3.83;;
64885;SDS011;51514;52.206;5.114;2022-10-16T06:25:21;7.32;;;3.70;;
64885;SDS011;51514;52.206;5.114;2022-10-16T06:27:46;10.13;;;4.47;;
64885;SDS011;51514;52.206;5.114;2022-10-16T06:30:12;9.13;;;4.38;;
64885;SDS011;51514;52.206;5.114;2022-10-16T06:32:37;7.57;;;3.92;;
64885;SDS011;51514;52.206;5.114;2022-10-16T06:35:02;6.22;;;3.67;;
64885;SDS011;51514;52.206;5.114;2022-10-16T06:37:28;8.43;;;4.32;;
64885;SDS011;51514;52.206;5.114;2022-10-16T06:39:53;8.25;;;3.92;;
64885;SDS011;51514;52.206;5.114;2022-10-16T06:42:18;8.15;;;3.72;;
64885;SDS011;51514;52.206;5.114;2022-10-16T06:44:44;7.93;;;4.18;;
64885;SDS011;51514;52.206;5.114;2022-10-16T06:47:09;6.53;;;4.47;;
64885;SDS011;51514;52.206;5.114;2022-10-16T06:49:35;7.50;;;4.00;;
64885;SDS011;51514;52.206;5.114;2022-10-16T06:52:00;8.10;;;3.88;;
64885;SDS011;51514;52.206;5.114;2022-10-16T06:54:26;8.52;;;4.25;;
64885;SDS011;51514;52.206;5.114;2022-10-16T06:56:52;7.18;;;3.70;;
64885;SDS011;51514;52.206;5.114;2022-10-16T06:59:19;9.15;;;4.20;;
64885;SDS011;51514;52.206;5.114;2022-10-16T07:01:45;10.63;;;3.80;;
64885;SDS011;51514;52.206;5.114;2022-10-16T07:04:10;6.32;;;3.85;;
64885;SDS011;51514;52.206;5.114;2022-10-16T07:06:35;8.93;;;3.78;;
64885;SDS011;51514;52.206;5.114;2022-10-16T07:09:02;8.18;;;3.17;;
64885;SDS011;51514;52.206;5.114;2022-10-16T07:11:29;7.70;;;3.80;;
64885;SDS011;51514;52.206;5.114;2022-10-16T07:13:58;7.63;;;3.53;;
64885;SDS011;51514;52.206;5.114;2022-10-16T07:16:26;8.32;;;2.95;;
64885;SDS011;51514;52.206;5.114;2022-10-16T07:18:53;6.15;;;3.28;;
64885;SDS011;51514;52.206;5.114;2022-10-16T07:21:23;7.72;;;3.08;;
64885;SDS011;51514;52.206;5.114;2022-10-16T07:23:53;9.10;;;2.92;;
64885;SDS011;51514;52.206;5.114;2022-10-16T07:26:21;6.30;;;2.47;;
64885;SDS011;51514;52.206;5.114;2022-10-16T07:28:47;8.13;;;2.60;;
64885;SDS011;51514;52.206;5.114;2022-10-16T07:31:13;7.45;;;2.70;;
64885;SDS011;51514;52.206;5.114;2022-10-16T07:33:40;6.45;;;2.58;;
64885;SDS011;51514;52.206;5.114;2022-10-16T07:36:10;4.93;;;2.30;;
64885;SDS011;51514;52.206;5.114;2022-10-16T07:38:36;5.63;;;2.33;;
64885;SDS011;51514;52.206;5.114;2022-10-16T07:41:02;6.32;;;2.83;;
64885;SDS011;51514;52.206;5.114;2022-10-16T07:43:32;7.07;;;2.60;;
64885;SDS011;51514;52.206;5.114;2022-10-16T07:45:58;7.13;;;2.55;;
64885;SDS011;51514;52.206;5.114;2022-10-16T07:48:26;6.05;;;2.50;;
64885;SDS011;51514;52.206;5.114;2022-10-16T07:50:56;8.40;;;2.20;;
64885;SDS011;51514;52.206;5.114;2022-10-16T07:53:22;7.70;;;2.55;;
64885;SDS011;51514;52.206;5.114;2022-10-16T07:55:47;7.88;;;2.83;;
64885;SDS011;51514;52.206;5.114;2022-10-16T07:58:13;10.38;;;2.83;;
64885;SDS011;51514;52.206;5.114;2022-10-16T08:00:39;7.63;;;2.83;;
64885;SDS011;51514;52.206;5.114;2022-10-16T08:03:04;7.55;;;3.92;;
64885;SDS011;51514;52.206;5.114;2022-10-16T08:05:30;8.02;;;3.10;;
64885;SDS011;51514;52.206;5.114;2022-10-16T08:07:56;5.70;;;3.17;;
64885;SDS011;51514;52.206;5.114;2022-10-16T08:10:23;8.27;;;3.20;;
64885;SDS011;51514;52.206;5.114;2022-10-16T08:12:50;8.20;;;3.72;;
64885;SDS011;51514;52.206;5.114;2022-10-16T08:15:16;6.05;;;3.35;;
64885;SDS011;51514;52.206;5.114;2022-10-16T08:17:42;7.05;;;3.72;;
64885;SDS011;51514;52.206;5.114;2022-10-16T08:20:07;7.88;;;3.20;;
64885;SDS011;51514;52.206;5.114;2022-10-16T08:22:33;9.40;;;4.13;;
64885;SDS011;51514;52.206;5.114;2022-10-16T08:24:58;7.25;;;3.60;;
64885;SDS011;51514;52.206;5.114;2022-10-16T08:27:24;9.43;;;4.03;;
64885;SDS011;51514;52.206;5.114;2022-10-16T08:29:49;9.05;;;3.35;;
64885;SDS011;51514;52.206;5.114;2022-10-16T08:32:15;6.10;;;3.40;;
64885;SDS011;51514;52.206;5.114;2022-10-16T08:34:40;8.20;;;3.35;;
64885;SDS011;51514;52.206;5.114;2022-10-16T08:37:06;12.00;;;3.80;;
64885;SDS011;51514;52.206;5.114;2022-10-16T08:39:33;8.32;;;3.88;;
64885;SDS011;51514;52.206;5.114;2022-10-16T08:50:27;11.45;;;3.47;;
64885;SDS011;51514;52.206;5.114;2022-10-16T08:52:54;10.93;;;2.75;;
64885;SDS011;51514;52.206;5.114;2022-10-16T08:55:34;5.25;;;3.15;;
64885;SDS011;51514;52.206;5.114;2022-10-16T08:58:16;7.05;;;3.53;;
64885;SDS011;51514;52.206;5.114;2022-10-16T09:01:04;7.50;;;3.25;;
64885;SDS011;51514;52.206;5.114;2022-10-16T09:06:35;10.15;;;2.88;;
64885;SDS011;51514;52.206;5.114;2022-10-16T09:11:55;8.75;;;3.00;;
64885;SDS011;51514;52.206;5.114;2022-10-16T09:17:38;8.25;;;2.88;;
64885;SDS011;51514;52.206;5.114;2022-10-16T09:22:48;13.65;;;3.35;;
64885;SDS011;51514;52.206;5.114;2022-10-16T09:25:16;8.93;;;3.25;;
64885;SDS011;51514;52.206;5.114;2022-10-16T09:27:47;8.77;;;3.03;;
64885;SDS011;51514;52.206;5.114;2022-10-16T09:30:14;12.50;;;3.45;;
64885;SDS011;51514;52.206;5.114;2022-10-16T09:32:44;12.88;;;3.42;;
64885;SDS011;51514;52.206;5.114;2022-10-16T09:35:19;9.35;;;3.13;;
64885;SDS011;51514;52.206;5.114;2022-10-16T09:37:48;10.30;;;3.38;;
64885;SDS011;51514;52.206;5.114;2022-10-16T09:40:26;9.02;;;3.08;;
64885;SDS011;51514;52.206;5.114;2022-10-16T09:45:26;9.60;;;2.97;;
64885;SDS011;51514;52.206;5.114;2022-10-16T09:47:54;14.45;;;3.53;;
64885;SDS011;51514;52.206;5.114;2022-10-16T09:50:21;15.55;;;2.92;;
64885;SDS011;51514;52.206;5.114;2022-10-16T09:52:49;9.45;;;2.88;;
64885;SDS011;51514;52.206;5.114;2022-10-16T09:55:16;14.85;;;3.50;;
64885;SDS011;51514;52.206;5.114;2022-10-16T09:57:49;9.20;;;2.78;;
64885;SDS011;51514;52.206;5.114;2022-10-16T10:00:16;6.70;;;2.83;;
64885;SDS011;51514;52.206;5.114;2022-10-16T10:02:43;10.00;;;3.17;;
64885;SDS011;51514;52.206;5.114;2022-10-16T10:05:20;14.27;;;3.00;;
64885;SDS011;51514;52.206;5.114;2022-10-16T10:07:54;8.02;;;2.80;;
64885;SDS011;51514;52.206;5.114;2022-10-16T10:10:34;10.18;;;3.40;;
64885;SDS011;51514;52.206;5.114;2022-10-16T10:13:19;12.70;;;2.88;;
64885;SDS011;51514;52.206;5.114;2022-10-16T10:15:46;9.15;;;3.75;;
64885;SDS011;51514;52.206;5.114;2022-10-16T10:18:16;10.70;;;3.38;;
64885;SDS011;51514;52.206;5.114;2022-10-16T10:20:43;11.85;;;2.97;;
64885;SDS011;51514;52.206;5.114;2022-10-16T10:23:22;12.25;;;3.53;;
64885;SDS011;51514;52.206;5.114;2022-10-16T10:25:53;10.98;;;3.30;;
64885;SDS011;51514;52.206;5.114;2022-10-16T10:31:34;13.70;;;2.88;;
64885;SDS011;51514;52.206;5.114;2022-10-16T10:39:08;8.38;;;2.72;;
64885;SDS011;51514;52.206;5.114;2022-10-16T10:44:39;12.15;;;3.47;;
64885;SDS011;51514;52.206;5.114;2022-10-16T10:50:07;13.20;;;3.97;;
64885;SDS011;51514;52.206;5.114;2022-10-16T10:55:03;11.02;;;2.85;;
64885;SDS011;51514;52.206;5.114;2022-10-16T11:05:44;7.95;;;2.88;;
64885;SDS011;51514;52.206;5.114;2022-10-16T11:08:29;11.50;;;3.58;;
64885;SDS011;51514;52.206;5.114;2022-10-16T11:11:02;8.93;;;2.70;;
64885;SDS011;51514;52.206;5.114;2022-10-16T11:13:36;10.35;;;3.00;;
64885;SDS011;51514;52.206;5.114;2022-10-16T11:16:14;9.70;;;3.38;;
64885;SDS011;51514;52.206;5.114;2022-10-16T11:18:56;13.23;;;3.53;;
64885;SDS011;51514;52.206;5.114;2022-10-16T11:21:29;11.48;;;3.33;;
64885;SDS011;51514;52.206;5.114;2022-10-16T11:23:59;11.65;;;3.00;;
64885;SDS011;51514;52.206;5.114;2022-10-16T11:26:34;13.43;;;3.63;;
64885;SDS011;51514;52.206;5.114;2022-10-16T11:29:04;9.98;;;3.53;;
64885;SDS011;51514;52.206;5.114;2022-10-16T11:31:42;8.43;;;2.50;;
64885;SDS011;51514;52.206;5.114;2022-10-16T11:34:15;16.10;;;3.28;;
64885;SDS011;51514;52.206;5.114;2022-10-16T11:37:36;6.63;;;2.47;;
64885;SDS011;51514;52.206;5.114;2022-10-16T11:39:37;11.95;;;3.20;;
64885;SDS011;51514;52.206;5.114;2022-10-16T11:42:07;11.27;;;2.90;;
64885;SDS011;51514;52.206;5.114;2022-10-16T11:49:57;13.95;;;3.00;;
64885;SDS011;51514;52.206;5.114;2022-10-16T11:52:33;12.82;;;2.35;;
64885;SDS011;51514;52.206;5.114;2022-10-16T11:57:32;6.47;;;2.50;;
64885;SDS011;51514;52.206;5.114;2022-10-16T12:00:08;9.68;;;2.47;;
64885;SDS011;51514;52.206;5.114;2022-10-16T12:02:54;7.43;;;2.60;;
64885;SDS011;51514;52.206;5.114;2022-10-16T12:08:13;8.70;;;2.65;;
64885;SDS011;51514;52.206;5.114;2022-10-16T12:10:42;10.10;;;2.67;;
64885;SDS011;51514;52.206;5.114;2022-10-16T12:16:06;14.13;;;3.05;;
64885;SDS011;51514;52.206;5.114;2022-10-16T12:20:57;15.93;;;4.13;;
64885;SDS011;51514;52.206;5.114;2022-10-16T12:23:29;12.77;;;3.75;;
64885;SDS011;51514;52.206;5.114;2022-10-16T12:25:55;12.52;;;2.60;;
64885;SDS011;51514;52.206;5.114;2022-10-16T12:28:25;11.00;;;3.03;;
64885;SDS011;51514;52.206;5.114;2022-10-16T12:30:56;12.07;;;3.20;;
64885;SDS011;51514;52.206;5.114;2022-10-16T12:33:25;12.75;;;2.72;;
64885;SDS011;51514;52.206;5.114;2022-10-16T12:35:55;10.10;;;2.72;;
64885;SDS011;51514;52.206;5.114;2022-10-16T12:38:37;12.18;;;3.10;;
64885;SDS011;51514;52.206;5.114;2022-10-16T12:41:11;9.75;;;3.20;;
64885;SDS011;51514;52.206;5.114;2022-10-16T12:43:43;11.88;;;2.40;;
64885;SDS011;51514;52.206;5.114;2022-10-16T12:48:38;8.85;;;2.45;;
64885;SDS011;51514;52.206;5.114;2022-10-16T12:51:48;10.07;;;2.35;;
64885;SDS011;51514;52.206;5.114;2022-10-16T12:56:37;9.55;;;2.88;;
64885;SDS011;51514;52.206;5.114;2022-10-16T13:04:45;10.93;;;2.47;;
64885;SDS011;51514;52.206;5.114;2022-10-16T13:07:25;12.80;;;2.20;;
64885;SDS011;51514;52.206;5.114;2022-10-16T13:21:27;15.00;;;2.88;;
64885;SDS011;51514;52.206;5.114;2022-10-16T13:23:32;11.48;;;2.95;;
64885;SDS011;51514;52.206;5.114;2022-10-16T13:26:09;11.50;;;2.33;;
64885;SDS011;51514;52.206;5.114;2022-10-16T13:28:48;13.02;;;2.92;;
64885;SDS011;51514;52.206;5.114;2022-10-16T13:31:15;14.00;;;2.60;;
64885;SDS011;51514;52.206;5.114;2022-10-16T13:33:48;9.13;;;2.60;;
64885;SDS011;51514;52.206;5.114;2022-10-16T13:36:20;9.63;;;2.63;;
64885;SDS011;51514;52.206;5.114;2022-10-16T13:38:46;10.60;;;2.78;;
64885;SDS011;51514;52.206;5.114;2022-10-16T13:41:16;10.02;;;2.92;;
64885;SDS011;51514;52.206;5.114;2022-10-16T13:43:44;9.88;;;2.55;;
64885;SDS011;51514;52.206;5.114;2022-10-16T13:48:39;9.02;;;2.72;;
64885;SDS011;51514;52.206;5.114;2022-10-16T13:51:18;11.23;;;3.20;;
64885;SDS011;51514;52.206;5.114;2022-10-16T13:53:45;13.98;;;2.92;;
64885;SDS011;51514;52.206;5.114;2022-10-16T13:56:12;14.43;;;2.83;;
64885;SDS011;51514;52.206;5.114;2022-10-16T13:58:42;10.05;;;2.92;;
64885;SDS011;51514;52.206;5.114;2022-10-16T14:01:18;13.63;;;2.63;;
64885;SDS011;51514;52.206;5.114;2022-10-16T14:03:48;14.30;;;2.60;;
64885;SDS011;51514;52.206;5.114;2022-10-16T14:06:16;10.98;;;3.40;;
64885;SDS011;51514;52.206;5.114;2022-10-16T14:08:48;8.90;;;2.50;;
64885;SDS011;51514;52.206;5.114;2022-10-16T14:11:22;12.63;;;3.08;;
64885;SDS011;51514;52.206;5.114;2022-10-16T14:13:48;12.57;;;2.75;;
64885;SDS011;51514;52.206;5.114;2022-10-16T14:16:20;8.63;;;2.75;;
64885;SDS011;51514;52.206;5.114;2022-10-16T14:19:05;8.65;;;2.42;;
64885;SDS011;51514;52.206;5.114;2022-10-16T14:21:32;10.63;;;3.63;;
64885;SDS011;51514;52.206;5.114;2022-10-16T14:23:58;8.32;;;2.60;;
64885;SDS011;51514;52.206;5.114;2022-10-16T14:26:25;8.18;;;2.70;;
64885;SDS011;51514;52.206;5.114;2022-10-16T14:32:20;12.48;;;3.15;;
64885;SDS011;51514;52.206;5.114;2022-10-16T14:34:52;14.82;;;3.63;;
64885;SDS011;51514;52.206;5.114;2022-10-16T14:37:22;15.95;;;3.38;;
64885;SDS011;51514;52.206;5.114;2022-10-16T14:39:51;14.20;;;2.45;;
64885;SDS011;51514;52.206;5.114;2022-10-16T14:42:18;10.07;;;2.55;;
64885;SDS011;51514;52.206;5.114;2022-10-16T14:44:46;11.43;;;3.33;;
64885;SDS011;51514;52.206;5.114;2022-10-16T14:47:17;11.93;;;2.97;;
64885;SDS011;51514;52.206;5.114;2022-10-16T14:49:50;15.55;;;3.22;;
64885;SDS011;51514;52.206;5.114;2022-10-16T14:52:16;9.77;;;2.75;;
64885;SDS011;51514;52.206;5.114;2022-10-16T14:54:42;11.45;;;3.40;;
64885;SDS011;51514;52.206;5.114;2022-10-16T14:57:17;9.20;;;3.20;;
64885;SDS011;51514;52.206;5.114;2022-10-16T14:59:44;9.23;;;2.95;;
64885;SDS011;51514;52.206;5.114;2022-10-16T15:04:50;14.63;;;3.05;;
64885;SDS011;51514;52.206;5.114;2022-10-16T15:07:15;13.48;;;2.88;;
64885;SDS011;51514;52.206;5.114;2022-10-16T15:09:41;8.93;;;2.25;;
64885;SDS011;51514;52.206;5.114;2022-10-16T15:12:06;12.65;;;2.75;;
64885;SDS011;51514;52.206;5.114;2022-10-16T15:14:32;14.23;;;3.70;;
64885;SDS011;51514;52.206;5.114;2022-10-16T15:16:57;13.32;;;2.97;;
64885;SDS011;51514;52.206;5.114;2022-10-16T15:19:22;12.57;;;3.42;;
64885;SDS011;51514;52.206;5.114;2022-10-16T15:21:48;9.88;;;3.08;;
64885;SDS011;51514;52.206;5.114;2022-10-16T15:24:14;10.90;;;2.72;;
64885;SDS011;51514;52.206;5.114;2022-10-16T15:26:39;11.00;;;2.80;;
64885;SDS011;51514;52.206;5.114;2022-10-16T15:29:05;13.70;;;2.70;;
64885;SDS011;51514;52.206;5.114;2022-10-16T15:31:30;12.40;;;3.20;;
64885;SDS011;51514;52.206;5.114;2022-10-16T15:33:56;12.15;;;2.55;;
64885;SDS011;51514;52.206;5.114;2022-10-16T15:36:32;10.27;;;3.35;;
64885;SDS011;51514;52.206;5.114;2022-10-16T15:39:01;16.25;;;3.28;;
64885;SDS011;51514;52.206;5.114;2022-10-16T15:41:27;16.00;;;3.47;;
64885;SDS011;51514;52.206;5.114;2022-10-16T15:43:52;11.00;;;2.72;;
64885;SDS011;51514;52.206;5.114;2022-10-16T15:46:18;10.35;;;2.85;;
64885;SDS011;51514;52.206;5.114;2022-10-16T15:48:45;12.48;;;2.97;;
64885;SDS011;51514;52.206;5.114;2022-10-16T15:51:11;11.13;;;2.70;;
64885;SDS011;51514;52.206;5.114;2022-10-16T15:53:37;15.20;;;3.05;;
64885;SDS011;51514;52.206;5.114;2022-10-16T15:56:03;10.82;;;2.70;;
64885;SDS011;51514;52.206;5.114;2022-10-16T15:58:28;26.65;;;4.15;;
64885;SDS011;51514;52.206;5.114;2022-10-16T16:00:58;15.48;;;4.47;;
64885;SDS011;51514;52.206;5.114;2022-10-16T16:03:29;15.77;;;3.10;;
64885;SDS011;51514;52.206;5.114;2022-10-16T16:05:55;13.32;;;3.38;;
64885;SDS011;51514;52.206;5.114;2022-10-16T16:08:20;11.07;;;3.00;;
64885;SDS011;51514;52.206;5.114;2022-10-16T16:10:57;9.50;;;3.10;;
64885;SDS011;51514;52.206;5.114;2022-10-16T16:13:26;10.65;;;2.80;;
64885;SDS011;51514;52.206;5.114;2022-10-16T16:15:51;16.55;;;3.28;;
64885;SDS011;51514;52.206;5.114;2022-10-16T16:18:17;15.77;;;3.45;;
64885;SDS011;51514;52.206;5.114;2022-10-16T16:20:42;12.20;;;3.50;;
64885;SDS011;51514;52.206;5.114;2022-10-16T16:23:07;12.15;;;2.97;;
64885;SDS011;51514;52.206;5.114;2022-10-16T16:25:33;18.02;;;4.90;;
64885;SDS011;51514;52.206;5.114;2022-10-16T16:27:58;12.23;;;3.42;;
64885;SDS011;51514;52.206;5.114;2022-10-16T16:30:23;15.48;;;3.72;;
64885;SDS011;51514;52.206;5.114;2022-10-16T16:32:49;14.43;;;3.22;;
64885;SDS011;51514;52.206;5.114;2022-10-16T16:35:14;15.88;;;3.55;;
64885;SDS011;51514;52.206;5.114;2022-10-16T16:37:39;10.50;;;3.42;;
64885;SDS011;51514;52.206;5.114;2022-10-16T16:40:05;16.52;;;3.42;;
64885;SDS011;51514;52.206;5.114;2022-10-16T16:42:30;16.92;;;3.17;;
64885;SDS011;51514;52.206;5.114;2022-10-16T16:44:56;17.77;;;4.00;;